Newburg, Pennsylvania
Current Conditions -  °F | °C
As of 5:53 AM on Wednesday 22 Oct 2014 (Local Time) from KRYT Reporting Station
Overcast Overcast  
Wind Chill: 53°   Ceiling: 2900
Heat Index: 53°   Visibility: 10mi
Dew Point: 46°   Wind: 8mph
Humidity: 77%   Direction: 40°NE
Pressure: 29.9"   Gusts: NA
Location:  40.14°N, 77.55°W
Report Text: KRYT 220953Z AUTO 04007KT 010V070 10SM FEW020 OVC029 12/08 A2990 RMK AO2 SLP127 T01170078 $
Loading
Personal Weather Stations






























Interactive Weather Map
Tropical Storm Tracking
New forecast layout! Learn more

10-Day Weather Forecast

Advertisements
Track Severe Weather on mobile